sensor_id;sensor_type;location;lat;lon;timestamp;P1;durP1;ratioP1;P2;durP2;ratioP2
52230;SDS011;38192;50.102;19.884;2022-07-29T00:01:22;10.10;;;3.58;;
52230;SDS011;38192;50.102;19.884;2022-07-29T00:03:48;9.52;;;3.80;;
52230;SDS011;38192;50.102;19.884;2022-07-29T00:06:14;8.32;;;3.45;;
52230;SDS011;38192;50.102;19.884;2022-07-29T00:08:40;12.13;;;4.75;;
52230;SDS011;38192;50.102;19.884;2022-07-29T00:11:06;12.48;;;4.10;;
52230;SDS011;38192;50.102;19.884;2022-07-29T00:13:32;10.63;;;3.80;;
52230;SDS011;38192;50.102;19.884;2022-07-29T00:15:59;11.18;;;3.40;;
52230;SDS011;38192;50.102;19.884;2022-07-29T00:18:25;5.50;;;3.33;;
52230;SDS011;38192;50.102;19.884;2022-07-29T00:20:51;14.32;;;4.15;;
52230;SDS011;38192;50.102;19.884;2022-07-29T00:23:16;11.45;;;3.58;;
52230;SDS011;38192;50.102;19.884;2022-07-29T00:25:42;10.80;;;4.05;;
52230;SDS011;38192;50.102;19.884;2022-07-29T00:28:08;9.73;;;3.25;;
52230;SDS011;38192;50.102;19.884;2022-07-29T00:30:34;12.60;;;3.75;;
52230;SDS011;38192;50.102;19.884;2022-07-29T00:33:00;12.52;;;3.83;;
52230;SDS011;38192;50.102;19.884;2022-07-29T00:35:25;13.63;;;3.08;;
52230;SDS011;38192;50.102;19.884;2022-07-29T00:40:45;11.70;;;3.20;;
52230;SDS011;38192;50.102;19.884;2022-07-29T00:43:12;10.38;;;2.80;;
52230;SDS011;38192;50.102;19.884;2022-07-29T00:45:40;10.80;;;3.47;;
52230;SDS011;38192;50.102;19.884;2022-07-29T00:48:06;11.40;;;2.72;;
52230;SDS011;38192;50.102;19.884;2022-07-29T00:50:34;14.32;;;3.45;;
52230;SDS011;38192;50.102;19.884;2022-07-29T00:53:00;9.90;;;3.25;;
52230;SDS011;38192;50.102;19.884;2022-07-29T00:55:28;8.98;;;3.10;;
52230;SDS011;38192;50.102;19.884;2022-07-29T00:57:54;8.93;;;3.10;;
52230;SDS011;38192;50.102;19.884;2022-07-29T01:00:22;7.97;;;2.92;;
52230;SDS011;38192;50.102;19.884;2022-07-29T01:02:50;8.48;;;2.88;;
52230;SDS011;38192;50.102;19.884;2022-07-29T01:05:16;15.02;;;3.58;;
52230;SDS011;38192;50.102;19.884;2022-07-29T01:07:44;12.32;;;3.13;;
52230;SDS011;38192;50.102;19.884;2022-07-29T01:10:11;7.82;;;2.70;;
52230;SDS011;38192;50.102;19.884;2022-07-29T01:12:39;5.65;;;2.78;;
52230;SDS011;38192;50.102;19.884;2022-07-29T01:15:06;8.45;;;2.55;;
52230;SDS011;38192;50.102;19.884;2022-07-29T01:17:35;10.50;;;3.20;;
52230;SDS011;38192;50.102;19.884;2022-07-29T01:23:11;8.80;;;2.90;;
52230;SDS011;38192;50.102;19.884;2022-07-29T01:28:47;10.60;;;3.88;;
52230;SDS011;38192;50.102;19.884;2022-07-29T01:31:27;7.68;;;2.95;;
52230;SDS011;38192;50.102;19.884;2022-07-29T01:34:05;7.53;;;3.05;;
52230;SDS011;38192;50.102;19.884;2022-07-29T01:36:39;5.38;;;3.15;;
52230;SDS011;38192;50.102;19.884;2022-07-29T01:39:10;7.70;;;3.35;;
52230;SDS011;38192;50.102;19.884;2022-07-29T01:41:38;4.38;;;2.80;;
52230;SDS011;38192;50.102;19.884;2022-07-29T01:44:17;7.05;;;3.08;;
52230;SDS011;38192;50.102;19.884;2022-07-29T01:46:57;7.03;;;3.00;;
52230;SDS011;38192;50.102;19.884;2022-07-29T01:49:28;5.90;;;2.92;;
52230;SDS011;38192;50.102;19.884;2022-07-29T01:51:59;5.45;;;2.78;;
52230;SDS011;38192;50.102;19.884;2022-07-29T01:54:40;7.20;;;2.60;;
52230;SDS011;38192;50.102;19.884;2022-07-29T01:57:09;6.93;;;2.83;;
52230;SDS011;38192;50.102;19.884;2022-07-29T01:59:38;5.28;;;2.53;;
52230;SDS011;38192;50.102;19.884;2022-07-29T02:02:06;6.80;;;2.65;;
52230;SDS011;38192;50.102;19.884;2022-07-29T02:04:33;6.55;;;2.60;;
52230;SDS011;38192;50.102;19.884;2022-07-29T02:07:03;4.85;;;2.45;;
52230;SDS011;38192;50.102;19.884;2022-07-29T02:09:32;4.05;;;2.58;;
52230;SDS011;38192;50.102;19.884;2022-07-29T02:12:00;5.07;;;2.70;;
52230;SDS011;38192;50.102;19.884;2022-07-29T02:14:30;9.93;;;2.50;;
52230;SDS011;38192;50.102;19.884;2022-07-29T02:17:02;10.82;;;2.60;;
52230;SDS011;38192;50.102;19.884;2022-07-29T02:19:29;7.40;;;2.28;;
52230;SDS011;38192;50.102;19.884;2022-07-29T02:21:58;8.15;;;3.13;;
52230;SDS011;38192;50.102;19.884;2022-07-29T02:24:25;5.57;;;2.90;;
52230;SDS011;38192;50.102;19.884;2022-07-29T02:26:53;6.72;;;2.67;;
52230;SDS011;38192;50.102;19.884;2022-07-29T02:29:22;4.70;;;2.60;;
52230;SDS011;38192;50.102;19.884;2022-07-29T02:31:50;9.55;;;2.55;;
52230;SDS011;38192;50.102;19.884;2022-07-29T02:34:18;4.50;;;2.50;;
52230;SDS011;38192;50.102;19.884;2022-07-29T02:36:46;3.85;;;2.42;;
52230;SDS011;38192;50.102;19.884;2022-07-29T02:39:13;7.07;;;2.50;;
52230;SDS011;38192;50.102;19.884;2022-07-29T02:41:41;9.75;;;2.83;;
52230;SDS011;38192;50.102;19.884;2022-07-29T02:44:15;6.18;;;2.70;;
52230;SDS011;38192;50.102;19.884;2022-07-29T02:46:49;5.45;;;1.90;;
52230;SDS011;38192;50.102;19.884;2022-07-29T02:51:49;6.90;;;2.63;;
52230;SDS011;38192;50.102;19.884;2022-07-29T02:54:20;6.25;;;2.42;;
52230;SDS011;38192;50.102;19.884;2022-07-29T02:57:04;4.47;;;2.45;;
52230;SDS011;38192;50.102;19.884;2022-07-29T02:59:36;12.05;;;2.83;;
52230;SDS011;38192;50.102;19.884;2022-07-29T03:02:07;4.80;;;2.45;;
52230;SDS011;38192;50.102;19.884;2022-07-29T03:04:34;9.00;;;2.92;;
52230;SDS011;38192;50.102;19.884;2022-07-29T03:07:02;5.35;;;2.08;;
52230;SDS011;38192;50.102;19.884;2022-07-29T03:09:30;8.45;;;2.75;;
52230;SDS011;38192;50.102;19.884;2022-07-29T03:11:56;7.53;;;2.55;;
52230;SDS011;38192;50.102;19.884;2022-07-29T03:14:23;7.38;;;2.45;;
52230;SDS011;38192;50.102;19.884;2022-07-29T03:16:49;9.30;;;2.65;;
52230;SDS011;38192;50.102;19.884;2022-07-29T03:19:16;6.97;;;2.53;;
52230;SDS011;38192;50.102;19.884;2022-07-29T03:21:43;11.10;;;2.97;;
52230;SDS011;38192;50.102;19.884;2022-07-29T03:24:09;9.18;;;2.75;;
52230;SDS011;38192;50.102;19.884;2022-07-29T03:26:35;11.27;;;2.60;;
52230;SDS011;38192;50.102;19.884;2022-07-29T03:29:01;4.88;;;2.55;;
52230;SDS011;38192;50.102;19.884;2022-07-29T03:31:27;6.28;;;2.20;;
52230;SDS011;38192;50.102;19.884;2022-07-29T03:33:53;5.57;;;2.38;;
52230;SDS011;38192;50.102;19.884;2022-07-29T03:36:18;5.50;;;2.40;;
52230;SDS011;38192;50.102;19.884;2022-07-29T03:38:44;5.10;;;2.47;;
52230;SDS011;38192;50.102;19.884;2022-07-29T03:41:12;10.73;;;2.72;;
52230;SDS011;38192;50.102;19.884;2022-07-29T03:43:40;8.00;;;2.20;;
52230;SDS011;38192;50.102;19.884;2022-07-29T03:46:07;5.00;;;2.30;;
52230;SDS011;38192;50.102;19.884;2022-07-29T03:48:36;8.27;;;2.63;;
52230;SDS011;38192;50.102;19.884;2022-07-29T03:51:05;7.85;;;2.65;;
52230;SDS011;38192;50.102;19.884;2022-07-29T03:53:32;9.50;;;2.63;;
52230;SDS011;38192;50.102;19.884;2022-07-29T03:56:00;9.15;;;2.83;;
52230;SDS011;38192;50.102;19.884;2022-07-29T03:58:28;4.38;;;2.40;;
52230;SDS011;38192;50.102;19.884;2022-07-29T04:00:56;5.85;;;2.55;;
52230;SDS011;38192;50.102;19.884;2022-07-29T04:03:22;6.93;;;2.67;;
52230;SDS011;38192;50.102;19.884;2022-07-29T04:06:06;6.95;;;2.35;;
52230;SDS011;38192;50.102;19.884;2022-07-29T04:08:32;4.22;;;2.30;;
52230;SDS011;38192;50.102;19.884;2022-07-29T04:10:59;5.38;;;2.50;;
52230;SDS011;38192;50.102;19.884;2022-07-29T04:13:26;7.75;;;2.35;;
52230;SDS011;38192;50.102;19.884;2022-07-29T04:15:52;6.05;;;2.83;;
52230;SDS011;38192;50.102;19.884;2022-07-29T04:18:18;3.88;;;2.42;;
52230;SDS011;38192;50.102;19.884;2022-07-29T04:20:44;11.23;;;2.88;;
52230;SDS011;38192;50.102;19.884;2022-07-29T04:23:10;10.07;;;2.80;;
52230;SDS011;38192;50.102;19.884;2022-07-29T04:25:39;13.68;;;2.60;;
52230;SDS011;38192;50.102;19.884;2022-07-29T04:28:05;6.68;;;2.63;;
52230;SDS011;38192;50.102;19.884;2022-07-29T04:30:32;9.57;;;2.72;;
52230;SDS011;38192;50.102;19.884;2022-07-29T04:33:03;6.40;;;2.78;;
52230;SDS011;38192;50.102;19.884;2022-07-29T04:35:30;12.52;;;3.58;;
52230;SDS011;38192;50.102;19.884;2022-07-29T04:37:59;7.65;;;3.22;;
52230;SDS011;38192;50.102;19.884;2022-07-29T04:40:25;13.98;;;3.22;;
52230;SDS011;38192;50.102;19.884;2022-07-29T04:42:50;12.98;;;3.08;;
52230;SDS011;38192;50.102;19.884;2022-07-29T04:45:16;10.98;;;3.10;;
52230;SDS011;38192;50.102;19.884;2022-07-29T04:47:42;8.98;;;3.10;;
52230;SDS011;38192;50.102;19.884;2022-07-29T04:50:08;10.70;;;2.88;;
52230;SDS011;38192;50.102;19.884;2022-07-29T04:52:35;11.20;;;3.58;;
52230;SDS011;38192;50.102;19.884;2022-07-29T04:55:01;23.50;;;3.92;;
52230;SDS011;38192;50.102;19.884;2022-07-29T04:57:28;12.65;;;2.85;;
52230;SDS011;38192;50.102;19.884;2022-07-29T04:59:54;14.07;;;3.95;;
52230;SDS011;38192;50.102;19.884;2022-07-29T05:02:19;15.57;;;4.03;;
52230;SDS011;38192;50.102;19.884;2022-07-29T05:04:47;24.98;;;3.65;;
52230;SDS011;38192;50.102;19.884;2022-07-29T05:07:13;27.27;;;4.03;;
52230;SDS011;38192;50.102;19.884;2022-07-29T05:09:39;18.80;;;4.13;;
52230;SDS011;38192;50.102;19.884;2022-07-29T05:12:05;28.90;;;5.07;;
52230;SDS011;38192;50.102;19.884;2022-07-29T05:14:32;29.02;;;4.18;;
52230;SDS011;38192;50.102;19.884;2022-07-29T05:16:58;33.25;;;5.07;;
52230;SDS011;38192;50.102;19.884;2022-07-29T05:19:24;16.83;;;3.28;;
52230;SDS011;38192;50.102;19.884;2022-07-29T05:21:49;16.70;;;3.17;;
52230;SDS011;38192;50.102;19.884;2022-07-29T05:24:15;10.40;;;2.92;;
52230;SDS011;38192;50.102;19.884;2022-07-29T05:26:41;12.40;;;3.35;;
52230;SDS011;38192;50.102;19.884;2022-07-29T05:29:07;8.60;;;2.70;;
52230;SDS011;38192;50.102;19.884;2022-07-29T05:31:33;7.78;;;2.67;;
52230;SDS011;38192;50.102;19.884;2022-07-29T05:33:59;7.78;;;2.83;;
52230;SDS011;38192;50.102;19.884;2022-07-29T05:36:25;7.45;;;2.75;;
52230;SDS011;38192;50.102;19.884;2022-07-29T05:38:51;13.40;;;2.83;;
52230;SDS011;38192;50.102;19.884;2022-07-29T05:41:20;7.50;;;2.20;;
52230;SDS011;38192;50.102;19.884;2022-07-29T05:43:46;7.32;;;2.60;;
52230;SDS011;38192;50.102;19.884;2022-07-29T05:46:12;11.38;;;2.60;;
52230;SDS011;38192;50.102;19.884;2022-07-29T05:48:39;11.27;;;3.03;;
52230;SDS011;38192;50.102;19.884;2022-07-29T05:51:05;11.38;;;2.88;;
52230;SDS011;38192;50.102;19.884;2022-07-29T05:53:31;14.13;;;3.00;;
52230;SDS011;38192;50.102;19.884;2022-07-29T05:55:57;8.95;;;3.15;;
52230;SDS011;38192;50.102;19.884;2022-07-29T05:58:23;10.07;;;3.10;;
52230;SDS011;38192;50.102;19.884;2022-07-29T06:00:48;7.25;;;2.60;;
52230;SDS011;38192;50.102;19.884;2022-07-29T06:03:14;9.57;;;2.78;;
52230;SDS011;38192;50.102;19.884;2022-07-29T06:05:40;13.73;;;3.10;;
52230;SDS011;38192;50.102;19.884;2022-07-29T06:08:06;12.13;;;3.00;;
52230;SDS011;38192;50.102;19.884;2022-07-29T06:10:33;10.48;;;2.97;;
52230;SDS011;38192;50.102;19.884;2022-07-29T06:13:00;5.90;;;2.88;;
52230;SDS011;38192;50.102;19.884;2022-07-29T06:15:26;14.32;;;2.50;;
52230;SDS011;38192;50.102;19.884;2022-07-29T06:17:56;8.68;;;2.70;;
52230;SDS011;38192;50.102;19.884;2022-07-29T06:20:22;6.00;;;2.92;;
52230;SDS011;38192;50.102;19.884;2022-07-29T06:22:48;14.60;;;3.10;;
52230;SDS011;38192;50.102;19.884;2022-07-29T06:25:13;7.18;;;2.55;;
52230;SDS011;38192;50.102;19.884;2022-07-29T06:27:39;5.75;;;2.67;;
52230;SDS011;38192;50.102;19.884;2022-07-29T06:30:05;11.65;;;3.17;;
52230;SDS011;38192;50.102;19.884;2022-07-29T06:32:35;12.10;;;3.47;;
52230;SDS011;38192;50.102;19.884;2022-07-29T06:35:01;7.80;;;2.78;;
52230;SDS011;38192;50.102;19.884;2022-07-29T06:37:27;5.63;;;3.40;;
52230;SDS011;38192;50.102;19.884;2022-07-29T06:39:52;8.25;;;2.50;;
52230;SDS011;38192;50.102;19.884;2022-07-29T06:42:42;5.82;;;2.63;;
52230;SDS011;38192;50.102;19.884;2022-07-29T06:45:09;12.10;;;2.72;;
52230;SDS011;38192;50.102;19.884;2022-07-29T06:47:36;14.25;;;2.80;;
52230;SDS011;38192;50.102;19.884;2022-07-29T06:50:02;8.00;;;3.22;;
52230;SDS011;38192;50.102;19.884;2022-07-29T06:52:28;10.18;;;2.80;;
52230;SDS011;38192;50.102;19.884;2022-07-29T06:54:54;7.00;;;2.95;;
52230;SDS011;38192;50.102;19.884;2022-07-29T06:57:20;10.68;;;2.85;;
52230;SDS011;38192;50.102;19.884;2022-07-29T06:59:47;11.00;;;2.72;;
52230;SDS011;38192;50.102;19.884;2022-07-29T07:02:13;11.20;;;2.50;;
52230;SDS011;38192;50.102;19.884;2022-07-29T07:04:39;7.20;;;2.55;;
52230;SDS011;38192;50.102;19.884;2022-07-29T07:07:05;17.02;;;2.88;;
52230;SDS011;38192;50.102;19.884;2022-07-29T07:09:30;12.10;;;2.90;;
52230;SDS011;38192;50.102;19.884;2022-07-29T07:11:56;4.78;;;2.47;;
52230;SDS011;38192;50.102;19.884;2022-07-29T07:14:22;11.45;;;3.25;;
52230;SDS011;38192;50.102;19.884;2022-07-29T07:16:48;11.10;;;2.83;;
52230;SDS011;38192;50.102;19.884;2022-07-29T07:19:14;8.50;;;2.30;;
52230;SDS011;38192;50.102;19.884;2022-07-29T07:21:39;6.28;;;2.42;;
52230;SDS011;38192;50.102;19.884;2022-07-29T07:24:05;15.23;;;3.17;;
52230;SDS011;38192;50.102;19.884;2022-07-29T07:26:31;14.60;;;3.20;;
52230;SDS011;38192;50.102;19.884;2022-07-29T07:28:57;7.70;;;2.83;;
52230;SDS011;38192;50.102;19.884;2022-07-29T07:31:24;7.82;;;2.47;;
52230;SDS011;38192;50.102;19.884;2022-07-29T07:33:50;6.82;;;3.00;;
52230;SDS011;38192;50.102;19.884;2022-07-29T07:36:17;5.85;;;2.25;;
52230;SDS011;38192;50.102;19.884;2022-07-29T07:38:42;8.65;;;2.67;;
52230;SDS011;38192;50.102;19.884;2022-07-29T07:41:09;10.43;;;2.75;;
52230;SDS011;38192;50.102;19.884;2022-07-29T07:43:34;7.32;;;4.60;;
52230;SDS011;38192;50.102;19.884;2022-07-29T07:46:00;9.80;;;2.58;;
52230;SDS011;38192;50.102;19.884;2022-07-29T07:48:26;7.15;;;2.40;;
52230;SDS011;38192;50.102;19.884;2022-07-29T07:50:52;5.80;;;2.33;;
52230;SDS011;38192;50.102;19.884;2022-07-29T07:53:18;6.68;;;2.50;;
52230;SDS011;38192;50.102;19.884;2022-07-29T07:55:44;8.07;;;2.33;;
52230;SDS011;38192;50.102;19.884;2022-07-29T07:58:10;8.13;;;2.30;;
52230;SDS011;38192;50.102;19.884;2022-07-29T08:00:36;12.93;;;3.10;;
52230;SDS011;38192;50.102;19.884;2022-07-29T08:03:02;8.07;;;2.65;;
52230;SDS011;38192;50.102;19.884;2022-07-29T08:05:28;6.00;;;2.80;;
52230;SDS011;38192;50.102;19.884;2022-07-29T08:07:55;12.88;;;2.38;;
52230;SDS011;38192;50.102;19.884;2022-07-29T08:10:20;8.35;;;2.42;;
52230;SDS011;38192;50.102;19.884;2022-07-29T08:13:05;9.82;;;2.40;;
52230;SDS011;38192;50.102;19.884;2022-07-29T08:15:32;7.53;;;2.20;;
52230;SDS011;38192;50.102;19.884;2022-07-29T08:17:58;11.48;;;2.70;;
52230;SDS011;38192;50.102;19.884;2022-07-29T08:20:24;9.75;;;2.50;;
52230;SDS011;38192;50.102;19.884;2022-07-29T08:22:51;5.57;;;2.50;;
52230;SDS011;38192;50.102;19.884;2022-07-29T08:25:17;7.60;;;2.60;;
52230;SDS011;38192;50.102;19.884;2022-07-29T08:27:45;9.27;;;2.42;;
52230;SDS011;38192;50.102;19.884;2022-07-29T08:30:12;9.85;;;2.47;;
52230;SDS011;38192;50.102;19.884;2022-07-29T08:32:38;14.40;;;2.30;;
52230;SDS011;38192;50.102;19.884;2022-07-29T08:35:04;6.20;;;2.40;;
52230;SDS011;38192;50.102;19.884;2022-07-29T08:37:30;8.52;;;2.58;;
52230;SDS011;38192;50.102;19.884;2022-07-29T08:39:56;9.38;;;2.38;;
52230;SDS011;38192;50.102;19.884;2022-07-29T08:42:22;7.85;;;2.15;;
52230;SDS011;38192;50.102;19.884;2022-07-29T08:44:48;6.93;;;2.47;;
52230;SDS011;38192;50.102;19.884;2022-07-29T08:47:15;7.50;;;2.22;;
52230;SDS011;38192;50.102;19.884;2022-07-29T08:49:42;7.13;;;2.40;;
52230;SDS011;38192;50.102;19.884;2022-07-29T08:52:10;11.43;;;2.50;;
52230;SDS011;38192;50.102;19.884;2022-07-29T08:54:38;9.07;;;2.35;;
52230;SDS011;38192;50.102;19.884;2022-07-29T08:57:06;3.17;;;1.90;;
52230;SDS011;38192;50.102;19.884;2022-07-29T08:59:32;6.78;;;2.80;;
52230;SDS011;38192;50.102;19.884;2022-07-29T09:01:59;8.30;;;2.30;;
52230;SDS011;38192;50.102;19.884;2022-07-29T09:04:30;13.20;;;2.45;;
52230;SDS011;38192;50.102;19.884;2022-07-29T09:06:58;6.43;;;2.30;;
52230;SDS011;38192;50.102;19.884;2022-07-29T09:09:28;7.60;;;2.10;;
52230;SDS011;38192;50.102;19.884;2022-07-29T09:11:55;6.05;;;2.17;;
52230;SDS011;38192;50.102;19.884;2022-07-29T09:14:21;3.78;;;1.92;;
52230;SDS011;38192;50.102;19.884;2022-07-29T09:19:21;7.55;;;2.10;;
52230;SDS011;38192;50.102;19.884;2022-07-29T09:21:49;4.32;;;1.88;;
52230;SDS011;38192;50.102;19.884;2022-07-29T09:27:24;3.70;;;2.55;;
52230;SDS011;38192;50.102;19.884;2022-07-29T09:29:57;3.63;;;2.03;;
52230;SDS011;38192;50.102;19.884;2022-07-29T09:32:26;8.65;;;2.55;;
52230;SDS011;38192;50.102;19.884;2022-07-29T09:37:42;3.42;;;1.92;;
52230;SDS011;38192;50.102;19.884;2022-07-29T09:40:12;4.53;;;2.08;;
52230;SDS011;38192;50.102;19.884;2022-07-29T09:42:46;3.95;;;2.00;;
52230;SDS011;38192;50.102;19.884;2022-07-29T09:45:25;5.88;;;2.00;;
52230;SDS011;38192;50.102;19.884;2022-07-29T09:47:56;8.02;;;2.30;;
52230;SDS011;38192;50.102;19.884;2022-07-29T09:50:35;10.85;;;2.33;;
52230;SDS011;38192;50.102;19.884;2022-07-29T09:53:05;9.43;;;2.58;;
52230;SDS011;38192;50.102;19.884;2022-07-29T09:55:31;3.95;;;2.40;;
52230;SDS011;38192;50.102;19.884;2022-07-29T09:58:19;11.38;;;2.50;;
52230;SDS011;38192;50.102;19.884;2022-07-29T10:00:47;10.32;;;3.67;;
52230;SDS011;38192;50.102;19.884;2022-07-29T10:03:14;10.80;;;2.58;;
52230;SDS011;38192;50.102;19.884;2022-07-29T10:05:41;7.78;;;2.22;;
52230;SDS011;38192;50.102;19.884;2022-07-29T10:08:09;4.43;;;2.22;;
52230;SDS011;38192;50.102;19.884;2022-07-29T10:10:41;8.77;;;2.58;;
52230;SDS011;38192;50.102;19.884;2022-07-29T10:13:11;10.32;;;2.90;;
52230;SDS011;38192;50.102;19.884;2022-07-29T10:15:40;8.00;;;3.70;;
52230;SDS011;38192;50.102;19.884;2022-07-29T10:18:09;8.68;;;2.60;;
52230;SDS011;38192;50.102;19.884;2022-07-29T10:20:36;8.43;;;2.45;;
52230;SDS011;38192;50.102;19.884;2022-07-29T10:23:03;9.40;;;2.83;;
52230;SDS011;38192;50.102;19.884;2022-07-29T10:25:29;4.38;;;2.72;;
52230;SDS011;38192;50.102;19.884;2022-07-29T10:27:56;9.48;;;2.65;;
52230;SDS011;38192;50.102;19.884;2022-07-29T10:30:22;11.00;;;2.45;;
52230;SDS011;38192;50.102;19.884;2022-07-29T10:35:44;5.75;;;2.50;;
52230;SDS011;38192;50.102;19.884;2022-07-29T10:44:03;7.72;;;2.10;;
52230;SDS011;38192;50.102;19.884;2022-07-29T10:46:38;9.85;;;2.35;;
52230;SDS011;38192;50.102;19.884;2022-07-29T10:49:06;7.63;;;2.38;;
52230;SDS011;38192;50.102;19.884;2022-07-29T10:54:19;6.13;;;2.47;;
52230;SDS011;38192;50.102;19.884;2022-07-29T10:59:48;5.80;;;2.33;;
52230;SDS011;38192;50.102;19.884;2022-07-29T11:05:04;6.35;;;2.45;;
52230;SDS011;38192;50.102;19.884;2022-07-29T11:10:42;6.22;;;2.30;;
52230;SDS011;38192;50.102;19.884;2022-07-29T11:13:08;7.10;;;2.05;;
52230;SDS011;38192;50.102;19.884;2022-07-29T11:18:20;4.25;;;2.38;;
52230;SDS011;38192;50.102;19.884;2022-07-29T11:20:46;6.18;;;2.20;;
52230;SDS011;38192;50.102;19.884;2022-07-29T11:23:28;8.68;;;2.80;;
52230;SDS011;38192;50.102;19.884;2022-07-29T11:31:17;5.82;;;2.40;;
52230;SDS011;38192;50.102;19.884;2022-07-29T11:39:41;4.75;;;2.20;;
52230;SDS011;38192;50.102;19.884;2022-07-29T11:44:54;8.75;;;2.45;;
52230;SDS011;38192;50.102;19.884;2022-07-29T11:47:23;9.02;;;2.42;;
52230;SDS011;38192;50.102;19.884;2022-07-29T11:49:50;6.20;;;2.60;;
52230;SDS011;38192;50.102;19.884;2022-07-29T11:52:17;4.43;;;2.50;;
52230;SDS011;38192;50.102;19.884;2022-07-29T11:54:44;6.50;;;2.47;;
52230;SDS011;38192;50.102;19.884;2022-07-29T11:57:17;5.65;;;2.70;;
52230;SDS011;38192;50.102;19.884;2022-07-29T11:59:46;4.18;;;2.30;;
52230;SDS011;38192;50.102;19.884;2022-07-29T12:02:13;10.88;;;2.72;;
52230;SDS011;38192;50.102;19.884;2022-07-29T12:04:50;12.30;;;2.72;;
52230;SDS011;38192;50.102;19.884;2022-07-29T12:07:30;6.18;;;2.75;;
52230;SDS011;38192;50.102;19.884;2022-07-29T12:09:58;6.35;;;2.50;;
52230;SDS011;38192;50.102;19.884;2022-07-29T12:12:25;12.02;;;3.63;;
52230;SDS011;38192;50.102;19.884;2022-07-29T12:14:51;6.60;;;2.13;;
52230;SDS011;38192;50.102;19.884;2022-07-29T12:17:30;4.82;;;2.50;;
52230;SDS011;38192;50.102;19.884;2022-07-29T12:20:01;4.80;;;2.60;;
52230;SDS011;38192;50.102;19.884;2022-07-29T12:22:33;6.78;;;2.45;;
52230;SDS011;38192;50.102;19.884;2022-07-29T12:25:09;13.13;;;2.55;;
52230;SDS011;38192;50.102;19.884;2022-07-29T12:27:37;5.80;;;2.42;;
52230;SDS011;38192;50.102;19.884;2022-07-29T12:30:07;7.72;;;2.80;;
52230;SDS011;38192;50.102;19.884;2022-07-29T12:32:36;7.30;;;2.45;;
52230;SDS011;38192;50.102;19.884;2022-07-29T12:35:05;7.93;;;2.30;;
52230;SDS011;38192;50.102;19.884;2022-07-29T12:37:37;13.70;;;2.40;;
52230;SDS011;38192;50.102;19.884;2022-07-29T12:40:04;11.27;;;2.58;;
52230;SDS011;38192;50.102;19.884;2022-07-29T12:42:32;8.50;;;2.92;;
52230;SDS011;38192;50.102;19.884;2022-07-29T12:44:58;6.03;;;2.22;;
52230;SDS011;38192;50.102;19.884;2022-07-29T12:47:24;6.07;;;2.40;;
52230;SDS011;38192;50.102;19.884;2022-07-29T12:49:50;7.60;;;2.47;;
52230;SDS011;38192;50.102;19.884;2022-07-29T12:52:34;9.48;;;2.63;;
52230;SDS011;38192;50.102;19.884;2022-07-29T12:55:00;6.55;;;2.58;;
52230;SDS011;38192;50.102;19.884;2022-07-29T12:57:27;9.20;;;2.83;;
52230;SDS011;38192;50.102;19.884;2022-07-29T13:00:00;11.30;;;3.15;;
52230;SDS011;38192;50.102;19.884;2022-07-29T13:02:39;7.03;;;2.55;;
52230;SDS011;38192;50.102;19.884;2022-07-29T13:05:06;12.57;;;3.03;;
52230;SDS011;38192;50.102;19.884;2022-07-29T13:07:34;5.18;;;2.97;;
52230;SDS011;38192;50.102;19.884;2022-07-29T13:10:11;8.98;;;2.63;;
52230;SDS011;38192;50.102;19.884;2022-07-29T13:13:00;8.75;;;2.60;;
52230;SDS011;38192;50.102;19.884;2022-07-29T13:15:34;7.18;;;2.38;;
52230;SDS011;38192;50.102;19.884;2022-07-29T13:18:01;9.10;;;2.53;;
52230;SDS011;38192;50.102;19.884;2022-07-29T13:20:28;5.20;;;2.65;;
52230;SDS011;38192;50.102;19.884;2022-07-29T13:23:00;6.53;;;2.70;;
52230;SDS011;38192;50.102;19.884;2022-07-29T13:25:27;8.18;;;2.92;;
52230;SDS011;38192;50.102;19.884;2022-07-29T13:27:54;12.40;;;2.78;;
52230;SDS011;38192;50.102;19.884;2022-07-29T13:30:20;15.32;;;3.13;;
52230;SDS011;38192;50.102;19.884;2022-07-29T13:32:48;9.85;;;2.28;;
52230;SDS011;38192;50.102;19.884;2022-07-29T13:35:14;6.47;;;2.38;;
52230;SDS011;38192;50.102;19.884;2022-07-29T13:37:40;12.50;;;2.67;;
52230;SDS011;38192;50.102;19.884;2022-07-29T13:40:07;11.88;;;2.72;;
52230;SDS011;38192;50.102;19.884;2022-07-29T13:42:34;8.82;;;2.30;;
52230;SDS011;38192;50.102;19.884;2022-07-29T13:45:00;15.80;;;2.60;;
52230;SDS011;38192;50.102;19.884;2022-07-29T13:47:27;7.82;;;2.67;;
52230;SDS011;38192;50.102;19.884;2022-07-29T13:49:56;5.40;;;2.75;;
52230;SDS011;38192;50.102;19.884;2022-07-29T13:52:21;4.60;;;2.40;;
52230;SDS011;38192;50.102;19.884;2022-07-29T13:54:47;3.65;;;2.50;;
52230;SDS011;38192;50.102;19.884;2022-07-29T13:57:14;5.10;;;2.53;;
52230;SDS011;38192;50.102;19.884;2022-07-29T13:59:40;7.70;;;2.63;;
52230;SDS011;38192;50.102;19.884;2022-07-29T14:02:07;7.78;;;2.90;;
52230;SDS011;38192;50.102;19.884;2022-07-29T14:04:33;5.22;;;2.47;;
52230;SDS011;38192;50.102;19.884;2022-07-29T14:06:59;11.05;;;2.42;;
52230;SDS011;38192;50.102;19.884;2022-07-29T14:09:25;10.98;;;2.97;;
52230;SDS011;38192;50.102;19.884;2022-07-29T14:11:51;11.55;;;2.60;;
52230;SDS011;38192;50.102;19.884;2022-07-29T14:14:18;10.55;;;2.90;;
52230;SDS011;38192;50.102;19.884;2022-07-29T14:16:44;10.63;;;3.03;;
52230;SDS011;38192;50.102;19.884;2022-07-29T14:19:09;9.05;;;2.80;;
52230;SDS011;38192;50.102;19.884;2022-07-29T14:21:36;9.70;;;2.67;;
52230;SDS011;38192;50.102;19.884;2022-07-29T14:24:03;3.92;;;2.50;;
52230;SDS011;38192;50.102;19.884;2022-07-29T14:26:29;4.32;;;2.33;;
52230;SDS011;38192;50.102;19.884;2022-07-29T14:28:55;10.07;;;2.95;;
52230;SDS011;38192;50.102;19.884;2022-07-29T14:31:21;5.47;;;2.95;;
52230;SDS011;38192;50.102;19.884;2022-07-29T14:33:46;4.10;;;2.63;;
52230;SDS011;38192;50.102;19.884;2022-07-29T14:36:12;9.60;;;3.05;;
52230;SDS011;38192;50.102;19.884;2022-07-29T14:38:38;10.73;;;2.40;;
52230;SDS011;38192;50.102;19.884;2022-07-29T14:41:05;7.60;;;2.20;;
52230;SDS011;38192;50.102;19.884;2022-07-29T14:43:33;4.88;;;2.28;;
52230;SDS011;38192;50.102;19.884;2022-07-29T14:46:02;5.82;;;2.85;;
52230;SDS011;38192;50.102;19.884;2022-07-29T14:48:28;13.45;;;2.75;;
52230;SDS011;38192;50.102;19.884;2022-07-29T14:50:54;3.85;;;2.50;;
52230;SDS011;38192;50.102;19.884;2022-07-29T14:53:21;6.32;;;2.15;;
52230;SDS011;38192;50.102;19.884;2022-07-29T14:55:47;10.32;;;2.63;;
52230;SDS011;38192;50.102;19.884;2022-07-29T14:58:14;13.70;;;2.80;;
52230;SDS011;38192;50.102;19.884;2022-07-29T15:00:40;4.45;;;2.47;;
52230;SDS011;38192;50.102;19.884;2022-07-29T15:03:06;11.50;;;2.80;;
52230;SDS011;38192;50.102;19.884;2022-07-29T15:05:34;5.18;;;2.50;;
52230;SDS011;38192;50.102;19.884;2022-07-29T15:08:00;4.30;;;2.45;;
52230;SDS011;38192;50.102;19.884;2022-07-29T15:10:26;3.53;;;2.60;;
52230;SDS011;38192;50.102;19.884;2022-07-29T15:12:52;8.27;;;2.92;;
52230;SDS011;38192;50.102;19.884;2022-07-29T15:15:18;9.80;;;3.15;;
52230;SDS011;38192;50.102;19.884;2022-07-29T15:17:44;4.82;;;2.67;;
52230;SDS011;38192;50.102;19.884;2022-07-29T15:20:13;4.55;;;2.58;;
52230;SDS011;38192;50.102;19.884;2022-07-29T15:22:39;5.80;;;2.47;;
52230;SDS011;38192;50.102;19.884;2022-07-29T15:25:07;9.68;;;2.92;;
52230;SDS011;38192;50.102;19.884;2022-07-29T15:27:33;8.40;;;3.28;;
52230;SDS011;38192;50.102;19.884;2022-07-29T15:29:59;7.70;;;2.70;;
52230;SDS011;38192;50.102;19.884;2022-07-29T15:32:25;11.23;;;2.60;;